createdAt,value
2022-10-21T00:01:49.761Z,68.20
2022-10-21T00:04:16.282Z,68.16
2022-10-21T00:06:42.900Z,68.25
2022-10-21T00:09:09.534Z,68.16
2022-10-21T00:11:36.140Z,68.31
2022-10-21T00:14:03.045Z,68.29
2022-10-21T00:16:29.679Z,68.28
2022-10-21T00:18:56.238Z,68.19
2022-10-21T00:21:23.288Z,68.30
2022-10-21T00:23:50.277Z,68.12
2022-10-21T00:26:18.044Z,68.53
2022-10-21T00:28:44.803Z,68.49
2022-10-21T00:31:13.108Z,68.52
2022-10-21T00:33:39.975Z,68.36
2022-10-21T00:36:14.545Z,68.45
2022-10-21T00:38:43.562Z,68.38
2022-10-21T00:41:10.457Z,68.41
2022-10-21T00:43:58.684Z,68.44
2022-10-21T00:46:40.040Z,68.52
2022-10-21T00:49:14.401Z,68.59
2022-10-21T00:51:41.954Z,68.63
2022-10-21T00:54:09.746Z,68.71
2022-10-21T00:56:36.714Z,68.47
2022-10-21T00:59:05.535Z,68.78
2022-10-21T01:01:32.415Z,68.35
2022-10-21T01:04:01.278Z,69.03
2022-10-21T01:06:28.828Z,68.80
2022-10-21T01:08:57.059Z,68.72
2022-10-21T01:11:25.662Z,68.73
2022-10-21T01:14:13.089Z,68.62
2022-10-21T01:16:50.407Z,68.72
2022-10-21T01:19:53.465Z,68.86
2022-10-21T01:22:44.444Z,68.99
2022-10-21T01:25:45.221Z,68.98
2022-10-21T01:28:29.639Z,68.96
2022-10-21T01:31:00.374Z,68.94
2022-10-21T01:33:38.205Z,68.83
2022-10-21T01:36:13.291Z,68.85
2022-10-21T01:38:54.603Z,68.81
2022-10-21T01:41:28.627Z,68.83
2022-10-21T01:44:13.786Z,68.73
2022-10-21T01:46:51.504Z,68.84
2022-10-21T01:49:31.639Z,68.98
2022-10-21T01:52:00.560Z,68.91
2022-10-21T01:54:32.479Z,68.84
2022-10-21T01:57:00.957Z,68.88
2022-10-21T01:59:30.639Z,68.86
2022-10-21T02:02:00.175Z,68.81
2022-10-21T02:04:28.967Z,68.80
2022-10-21T02:06:55.576Z,68.74
2022-10-21T02:09:22.244Z,68.87
2022-10-21T02:11:51.830Z,68.68
2022-10-21T02:14:45.078Z,68.79
2022-10-21T02:17:15.137Z,68.66
2022-10-21T02:19:42.020Z,68.88
2022-10-21T02:22:11.984Z,68.74
2022-10-21T02:24:42.381Z,68.70
2022-10-21T02:27:08.970Z,68.71
2022-10-21T02:29:40.112Z,69.01
2022-10-21T02:32:20.476Z,68.69
2022-10-21T02:35:08.941Z,68.67
2022-10-21T02:38:04.681Z,68.77
2022-10-21T02:40:43.209Z,68.75
2022-10-21T02:43:15.518Z,68.67
2022-10-21T02:45:42.280Z,68.96
2022-10-21T02:48:08.769Z,68.93
2022-10-21T02:50:35.384Z,68.93
2022-10-21T02:53:02.118Z,68.93
2022-10-21T02:55:28.636Z,68.80
2022-10-21T02:57:55.147Z,68.88
2022-10-21T03:00:21.736Z,69.04
2022-10-21T03:02:48.394Z,68.88
2022-10-21T03:05:15.086Z,68.89
2022-10-21T03:07:41.802Z,68.91
2022-10-21T03:10:08.723Z,68.92
2022-10-21T03:12:35.264Z,68.71
2022-10-21T03:15:01.889Z,68.90
2022-10-21T03:17:28.378Z,69.04
2022-10-21T03:19:54.945Z,69.03
2022-10-21T03:22:21.551Z,69.02
2022-10-21T03:24:48.092Z,69.18
2022-10-21T03:27:14.661Z,69.18
2022-10-21T03:29:41.154Z,69.17
2022-10-21T03:32:07.698Z,69.21
2022-10-21T03:34:34.254Z,69.13
2022-10-21T03:37:00.809Z,69.17
2022-10-21T03:39:27.401Z,69.52
2022-10-21T03:41:53.962Z,69.21
2022-10-21T03:44:20.470Z,69.14
2022-10-21T03:46:47.059Z,69.24
2022-10-21T03:49:19.984Z,69.30
2022-10-21T03:51:47.901Z,69.28
2022-10-21T03:54:14.686Z,69.29
2022-10-21T03:56:41.250Z,69.35
2022-10-21T03:59:07.752Z,69.31
2022-10-21T04:01:34.370Z,69.30
2022-10-21T04:04:01.003Z,69.16
2022-10-21T04:06:27.572Z,69.18
2022-10-21T04:08:54.368Z,69.23
2022-10-21T04:11:20.974Z,69.13
2022-10-21T04:13:47.466Z,68.96
2022-10-21T04:16:17.550Z,69.19
2022-10-21T04:18:44.113Z,69.29
2022-10-21T04:21:11.183Z,69.34
2022-10-21T04:23:38.101Z,69.04
2022-10-21T04:26:05.551Z,69.32
2022-10-21T04:28:32.911Z,69.35
2022-10-21T04:30:59.477Z,69.33
2022-10-21T04:33:26.560Z,69.33
2022-10-21T04:35:58.827Z,69.25
2022-10-21T04:38:25.654Z,69.36
2022-10-21T04:40:59.817Z,69.33
2022-10-21T04:43:26.844Z,69.42
2022-10-21T04:45:54.165Z,69.19
2022-10-21T04:48:21.801Z,69.48
2022-10-21T04:50:52.799Z,69.43
2022-10-21T04:53:19.757Z,69.38
2022-10-21T04:55:53.003Z,69.27
2022-10-21T04:58:22.064Z,69.33
2022-10-21T05:00:50.438Z,69.51
2022-10-21T05:03:17.456Z,69.51
2022-10-21T05:05:44.118Z,69.47
2022-10-21T05:08:11.755Z,69.44
2022-10-21T05:10:38.595Z,69.41
2022-10-21T05:13:06.110Z,69.44
2022-10-21T05:15:33.681Z,69.65
2022-10-21T05:18:00.387Z,69.53
2022-10-21T05:20:26.954Z,69.38
2022-10-21T05:22:53.766Z,69.47
2022-10-21T05:25:20.871Z,69.41
2022-10-21T05:27:47.631Z,69.48
2022-10-21T05:30:14.366Z,69.33
2022-10-21T05:32:41.848Z,69.23
2022-10-21T05:35:08.790Z,69.47
2022-10-21T05:37:35.305Z,69.53
2022-10-21T05:40:02.122Z,69.38
2022-10-21T05:42:28.713Z,69.24
2022-10-21T05:44:55.239Z,69.37
2022-10-21T05:47:23.762Z,69.55
2022-10-21T05:49:50.769Z,69.41
2022-10-21T05:52:17.426Z,69.30
2022-10-21T05:54:44.021Z,69.33
2022-10-21T05:57:10.532Z,69.37
2022-10-21T05:59:37.081Z,69.46
2022-10-21T06:02:03.611Z,69.59
2022-10-21T06:04:31.337Z,69.62
2022-10-21T06:06:59.387Z,69.52
2022-10-21T06:09:26.000Z,69.29
2022-10-21T06:11:52.634Z,69.48
2022-10-21T06:14:20.381Z,69.59
2022-10-21T06:16:46.922Z,69.78
2022-10-21T06:19:13.534Z,69.51
2022-10-21T06:21:40.031Z,69.64
2022-10-21T06:24:06.544Z,69.70
2022-10-21T06:26:36.048Z,69.87
2022-10-21T06:29:03.833Z,69.96
2022-10-21T06:31:30.509Z,69.97
2022-10-21T06:33:57.161Z,69.89
2022-10-21T06:36:23.735Z,70.14
2022-10-21T06:38:50.282Z,70.19
2022-10-21T06:41:18.063Z,70.11
2022-10-21T06:43:44.698Z,69.99
2022-10-21T06:46:14.392Z,69.87
2022-10-21T06:48:41.503Z,70.17
2022-10-21T06:51:11.930Z,70.27
2022-10-21T06:53:39.413Z,69.93
2022-10-21T06:56:11.788Z,69.85
2022-10-21T06:58:43.149Z,70.15
2022-10-21T07:01:27.261Z,70.26
2022-10-21T07:03:59.032Z,70.42
2022-10-21T07:06:25.728Z,70.50
2022-10-21T07:08:59.533Z,70.72
2022-10-21T07:11:27.545Z,70.65
2022-10-21T07:13:54.113Z,70.63
2022-10-21T07:16:29.795Z,70.69
2022-10-21T07:18:56.668Z,70.95
2022-10-21T07:21:25.957Z,70.98
2022-10-21T07:23:56.490Z,71.09
2022-10-21T07:26:27.207Z,71.10
2022-10-21T07:28:55.498Z,71.18
2022-10-21T07:31:22.045Z,71.47
2022-10-21T07:33:49.154Z,71.45
2022-10-21T07:36:19.997Z,71.29
2022-10-21T07:38:48.067Z,71.44
2022-10-21T07:41:26.949Z,72.12
2022-10-21T07:43:54.272Z,71.86
2022-10-21T07:46:21.873Z,71.98
2022-10-21T07:48:49.002Z,72.13
2022-10-21T07:51:19.250Z,72.35
2022-10-21T07:53:45.986Z,72.37
2022-10-21T07:56:16.698Z,72.54
2022-10-21T07:58:43.899Z,72.75
2022-10-21T08:01:11.249Z,72.89
2022-10-21T08:03:38.870Z,72.91
2022-10-21T08:06:06.776Z,72.79
2022-10-21T08:08:34.120Z,73.19
2022-10-21T08:11:01.535Z,73.02
2022-10-21T08:13:28.318Z,72.72
2022-10-21T08:15:56.812Z,72.71
2022-10-21T08:18:24.482Z,72.61
2022-10-21T08:20:50.904Z,72.76
2022-10-21T08:23:20.298Z,72.51
2022-10-21T08:25:55.846Z,72.47
2022-10-21T08:28:24.938Z,72.32
2022-10-21T08:30:51.721Z,72.57
2022-10-21T08:33:18.238Z,72.72
2022-10-21T08:35:44.975Z,72.77
2022-10-21T08:38:11.794Z,72.80
2022-10-21T08:40:41.541Z,72.85
2022-10-21T08:43:10.264Z,73.03
2022-10-21T08:45:48.337Z,73.05
2022-10-21T08:48:21.894Z,73.19
2022-10-21T08:50:50.811Z,73.12
2022-10-21T08:53:35.161Z,72.90
2022-10-21T08:56:06.429Z,72.90
2022-10-21T08:58:32.971Z,72.90
2022-10-21T09:01:12.386Z,72.81
2022-10-21T09:03:47.036Z,72.75
2022-10-21T09:06:21.325Z,72.82
2022-10-21T09:09:12.094Z,72.75
2022-10-21T09:11:41.526Z,72.99
2022-10-21T09:14:27.458Z,72.76
2022-10-21T09:17:21.745Z,73.18
2022-10-21T09:20:01.734Z,73.37
2022-10-21T09:23:03.886Z,73.32
2022-10-21T09:25:30.219Z,73.16
2022-10-21T09:27:57.306Z,73.32
2022-10-21T09:30:24.941Z,73.12
2022-10-21T09:32:56.898Z,73.05
2022-10-21T09:35:36.334Z,73.22
2022-10-21T09:38:29.082Z,72.90
2022-10-21T09:41:03.595Z,73.08
2022-10-21T09:43:30.710Z,73.49
2022-10-21T09:45:57.974Z,73.47
2022-10-21T09:51:40.111Z,73.62
2022-10-21T09:54:11.623Z,73.43
2022-10-21T09:56:46.601Z,73.51
2022-10-21T09:59:14.901Z,73.68
2022-10-21T10:01:43.410Z,73.74
2022-10-21T10:04:21.023Z,73.75
2022-10-21T10:06:47.665Z,74.09
2022-10-21T10:09:25.504Z,74.00
2022-10-21T10:12:00.365Z,73.80
2022-10-21T10:14:31.463Z,74.00
2022-10-21T10:17:18.471Z,74.12
2022-10-21T10:20:04.948Z,73.95
2022-10-21T10:22:38.176Z,74.34
2022-10-21T10:25:22.733Z,74.23
2022-10-21T10:27:53.759Z,74.15
2022-10-21T10:30:22.560Z,74.06
2022-10-21T10:32:52.226Z,73.93
2022-10-21T10:35:30.840Z,74.17
2022-10-21T10:37:59.085Z,74.32
2022-10-21T10:40:42.135Z,74.13
2022-10-21T10:43:26.558Z,73.88
2022-10-21T10:46:00.353Z,74.54
2022-10-21T10:48:38.543Z,74.09
2022-10-21T10:51:23.125Z,74.33
2022-10-21T10:54:17.777Z,74.23
2022-10-21T10:56:55.962Z,74.19
2022-10-21T10:59:40.706Z,74.25
2022-10-21T11:02:10.111Z,74.32
2022-10-21T11:04:45.930Z,74.23
2022-10-21T11:07:25.614Z,74.32
2022-10-21T11:09:56.725Z,74.36
2022-10-21T11:12:26.452Z,74.43
2022-10-21T11:14:58.439Z,74.58
2022-10-21T11:18:00.513Z,74.78
2022-10-21T11:20:42.520Z,74.83
2022-10-21T11:23:39.831Z,74.56
2022-10-21T11:26:19.618Z,74.63
2022-10-21T11:29:01.376Z,74.85
2022-10-21T11:32:09.697Z,75.00
2022-10-21T11:35:00.986Z,75.04
2022-10-21T11:37:46.408Z,75.00
2022-10-21T11:40:33.417Z,75.19
2022-10-21T11:43:28.470Z,75.44
2022-10-21T11:45:58.456Z,75.39
2022-10-21T11:48:41.703Z,75.33
2022-10-21T11:51:24.604Z,75.35
2022-10-21T11:54:24.842Z,75.55
2022-10-21T11:57:04.293Z,75.50
2022-10-21T11:59:53.197Z,75.33
2022-10-21T12:02:30.191Z,75.42
2022-10-21T12:05:06.059Z,75.37
2022-10-21T12:07:43.398Z,75.28
2022-10-21T12:10:27.267Z,75.26
2022-10-21T12:12:57.378Z,75.42
2022-10-21T12:15:43.351Z,75.47
2022-10-21T12:18:15.882Z,75.56
2022-10-21T12:20:45.196Z,75.76
2022-10-21T12:23:15.674Z,75.38
2022-10-21T12:26:00.396Z,75.67
2022-10-21T12:28:36.363Z,75.55
2022-10-21T12:31:33.819Z,75.83
2022-10-21T12:34:02.383Z,75.67
2022-10-21T12:36:44.402Z,75.72
2022-10-21T12:39:18.668Z,75.89
2022-10-21T12:41:47.663Z,76.09
2022-10-21T12:44:22.393Z,76.10
2022-10-21T12:46:52.723Z,76.04
2022-10-21T12:49:19.186Z,75.99
2022-10-21T12:51:57.123Z,76.13
2022-10-21T12:54:30.406Z,76.19
2022-10-21T12:57:06.437Z,76.11
2022-10-21T12:59:36.425Z,76.21
2022-10-21T13:02:05.908Z,76.04
2022-10-21T13:04:32.236Z,76.15
2022-10-21T13:07:17.005Z,76.22
2022-10-21T13:10:05.973Z,76.21
2022-10-21T13:12:33.436Z,76.12
2022-10-21T13:15:22.470Z,76.38
2022-10-21T13:17:57.621Z,76.09
2022-10-21T13:20:24.133Z,76.11
2022-10-21T13:23:01.888Z,75.91
2022-10-21T13:25:32.572Z,75.81
2022-10-21T13:28:14.215Z,75.37
2022-10-21T13:30:58.440Z,75.68
2022-10-21T13:33:27.726Z,75.68
2022-10-21T13:36:01.359Z,75.81
2022-10-21T13:38:33.955Z,75.53
2022-10-21T13:41:07.295Z,75.34
2022-10-21T13:43:40.026Z,75.59
2022-10-21T13:46:31.074Z,75.47
2022-10-21T13:49:00.742Z,75.68
2022-10-21T13:51:41.036Z,75.63
2022-10-21T13:54:13.225Z,75.81
2022-10-21T13:56:40.667Z,76.03
2022-10-21T13:59:21.225Z,75.80
2022-10-21T14:01:53.068Z,75.93
2022-10-21T14:04:25.809Z,75.64
2022-10-21T14:06:58.497Z,75.79
2022-10-21T14:09:32.897Z,75.72
2022-10-21T14:12:04.287Z,75.72
2022-10-21T14:14:33.331Z,75.69
2022-10-21T14:17:02.619Z,75.59
2022-10-21T14:19:32.590Z,75.63
2022-10-21T14:22:01.171Z,75.98
2022-10-21T14:24:37.585Z,75.61
2022-10-21T14:27:05.074Z,75.65
2022-10-21T14:29:33.867Z,75.58
2022-10-21T14:32:01.379Z,75.91
2022-10-21T14:34:33.493Z,75.88
2022-10-21T14:37:11.156Z,75.86
2022-10-21T14:39:39.467Z,75.82
2022-10-21T14:42:12.043Z,75.80
2022-10-21T14:44:41.426Z,75.91
2022-10-21T14:47:17.798Z,75.43
2022-10-21T14:49:49.650Z,75.97
2022-10-21T14:52:22.004Z,75.91
2022-10-21T14:54:57.409Z,75.67
2022-10-21T14:57:42.517Z,75.34
2022-10-21T15:00:20.123Z,75.33
2022-10-21T15:02:46.754Z,75.58
2022-10-21T15:05:38.568Z,75.25
2022-10-21T15:08:28.792Z,75.33
2022-10-21T15:10:58.623Z,75.49
2022-10-21T15:13:26.812Z,75.11
2022-10-21T15:15:57.469Z,75.06
2022-10-21T15:18:34.063Z,75.56
2022-10-21T15:21:03.197Z,75.22
2022-10-21T15:23:34.199Z,74.83
2022-10-21T15:26:05.737Z,74.58
2022-10-21T15:28:34.234Z,74.37
2022-10-21T15:31:02.588Z,74.20
2022-10-21T15:33:29.756Z,74.06
2022-10-21T15:36:04.673Z,74.01
2022-10-21T15:38:31.172Z,73.78
2022-10-21T15:40:57.948Z,74.07
2022-10-21T15:43:25.245Z,74.33
2022-10-21T15:45:51.822Z,74.45
2022-10-21T15:48:18.234Z,74.68
2022-10-21T15:50:44.748Z,74.65
2022-10-21T15:53:11.561Z,74.75
2022-10-21T15:55:38.647Z,74.81
2022-10-21T15:58:06.076Z,74.64
2022-10-21T16:00:38.527Z,74.83
2022-10-21T16:03:07.577Z,74.82
2022-10-21T16:05:34.273Z,74.83
2022-10-21T16:08:00.833Z,74.73
2022-10-21T16:10:31.142Z,74.77
2022-10-21T16:12:58.046Z,74.72
2022-10-21T16:15:25.174Z,74.92
2022-10-21T16:17:54.632Z,75.00
2022-10-21T16:20:29.155Z,74.65
2022-10-21T16:22:59.228Z,74.92
2022-10-21T16:25:28.647Z,74.88
2022-10-21T16:27:56.543Z,74.74
2022-10-21T16:30:32.273Z,74.65
2022-10-21T16:32:58.757Z,74.70
2022-10-21T16:35:26.219Z,74.73
2022-10-21T16:37:52.799Z,74.91
2022-10-21T16:40:35.295Z,74.51
2022-10-21T16:43:01.830Z,74.41
2022-10-21T16:45:30.551Z,74.62
2022-10-21T16:47:59.978Z,74.72
2022-10-21T16:50:40.828Z,74.79
2022-10-21T16:53:16.899Z,74.83
2022-10-21T16:55:43.756Z,74.63
2022-10-21T16:58:10.146Z,74.69
2022-10-21T17:00:36.608Z,74.73
2022-10-21T17:03:03.740Z,74.64
2022-10-21T17:05:30.388Z,74.71
2022-10-21T17:07:58.466Z,74.72
2022-10-21T17:10:24.856Z,74.63
2022-10-21T17:12:56.991Z,74.61
2022-10-21T17:15:23.422Z,74.46
2022-10-21T17:17:49.826Z,74.58
2022-10-21T17:20:16.330Z,74.83
2022-10-21T17:22:42.808Z,74.76
2022-10-21T17:25:12.885Z,74.63
2022-10-21T17:27:39.916Z,74.46
2022-10-21T17:30:07.237Z,74.74
2022-10-21T17:32:33.725Z,74.54
2022-10-21T17:35:00.197Z,74.69
2022-10-21T17:37:26.650Z,74.74
2022-10-21T17:39:53.045Z,74.86
2022-10-21T17:42:19.566Z,74.77
2022-10-21T17:44:46.015Z,74.79
2022-10-21T17:47:14.786Z,74.76
2022-10-21T17:49:41.769Z,74.87
2022-10-21T17:52:08.930Z,74.75
2022-10-21T17:54:36.325Z,74.96
2022-10-21T17:57:03.545Z,74.63
2022-10-21T17:59:32.569Z,75.04
2022-10-21T18:01:59.628Z,74.93
2022-10-21T18:04:26.163Z,74.87
2022-10-21T18:06:52.589Z,74.86
2022-10-21T18:09:19.254Z,74.89
2022-10-21T18:11:45.805Z,74.79
2022-10-21T18:14:12.710Z,74.81
2022-10-21T18:16:39.150Z,74.74
2022-10-21T18:19:05.578Z,74.73
2022-10-21T18:21:32.155Z,74.76
2022-10-21T18:23:58.572Z,74.63
2022-10-21T18:26:27.469Z,74.78
2022-10-21T18:28:59.605Z,74.71
2022-10-21T18:31:29.682Z,74.74
2022-10-21T18:33:58.013Z,74.49
2022-10-21T18:36:24.605Z,74.67
2022-10-21T18:38:51.269Z,74.64
2022-10-21T18:41:20.969Z,74.54
2022-10-21T18:43:53.156Z,74.54
2022-10-21T18:46:20.446Z,74.56
2022-10-21T18:48:47.453Z,74.61
2022-10-21T18:51:18.883Z,74.45
2022-10-21T18:53:49.877Z,74.50
2022-10-21T18:56:18.167Z,74.78
2022-10-21T18:58:44.823Z,74.62
2022-10-21T19:01:12.122Z,74.38
2022-10-21T19:03:38.681Z,74.30
2022-10-21T19:06:19.234Z,74.22
2022-10-21T19:08:47.011Z,74.30
2022-10-21T19:11:13.495Z,74.19
2022-10-21T19:13:39.958Z,74.24
2022-10-21T19:16:06.966Z,74.24
2022-10-21T19:18:33.389Z,74.07
2022-10-21T19:20:59.758Z,74.01
2022-10-21T19:23:27.660Z,73.87
2022-10-21T19:25:54.102Z,73.87
2022-10-21T19:28:20.774Z,73.67
2022-10-21T19:30:47.226Z,73.62
2022-10-21T19:33:13.642Z,73.60
2022-10-21T19:35:40.039Z,73.45
2022-10-21T19:38:11.619Z,73.40
2022-10-21T19:40:46.826Z,73.36
2022-10-21T19:43:13.213Z,73.33
2022-10-21T19:45:39.636Z,73.31
2022-10-21T19:48:07.043Z,73.18
2022-10-21T19:50:33.526Z,72.98
2022-10-21T19:52:59.917Z,73.00
2022-10-21T19:55:37.460Z,72.86
2022-10-21T19:58:07.394Z,72.82
2022-10-21T20:00:37.059Z,72.80
2022-10-21T20:03:05.646Z,73.02
2022-10-21T20:05:39.013Z,72.79
2022-10-21T20:08:08.489Z,72.84
2022-10-21T20:10:38.034Z,72.73
2022-10-21T20:13:08.689Z,72.83
2022-10-21T20:15:39.538Z,72.52
2022-10-21T20:18:10.367Z,72.61
2022-10-21T20:20:44.066Z,72.40
2022-10-21T20:23:14.380Z,72.60
2022-10-21T20:26:02.157Z,72.55
2022-10-21T20:28:31.591Z,72.54
2022-10-21T20:31:10.861Z,72.45
2022-10-21T20:33:44.279Z,72.40
2022-10-21T20:36:21.086Z,72.29
2022-10-21T20:38:52.026Z,72.38
2022-10-21T20:41:24.621Z,72.28
2022-10-21T20:43:56.421Z,72.28
2022-10-21T20:46:28.573Z,72.16
2022-10-21T20:48:59.784Z,72.08
2022-10-21T20:51:32.303Z,72.16
2022-10-21T20:54:05.934Z,72.17
2022-10-21T20:56:38.394Z,72.13
2022-10-21T20:59:10.409Z,72.11
2022-10-21T21:01:44.577Z,71.97
2022-10-21T21:04:17.409Z,71.95
2022-10-21T21:06:50.043Z,71.85
2022-10-21T21:09:38.108Z,72.01
2022-10-21T21:12:07.672Z,71.68
2022-10-21T21:14:34.480Z,71.90
2022-10-21T21:17:01.164Z,71.92
2022-10-21T21:19:27.786Z,71.99
2022-10-21T21:21:54.444Z,71.92
2022-10-21T21:24:21.136Z,71.89
2022-10-21T21:26:47.807Z,72.00
2022-10-21T21:29:14.743Z,71.96
2022-10-21T21:31:42.579Z,71.96
2022-10-21T21:34:09.873Z,71.98
2022-10-21T21:36:36.939Z,72.13
2022-10-21T21:39:05.048Z,71.89
2022-10-21T21:41:31.610Z,72.22
2022-10-21T21:43:58.356Z,72.06
2022-10-21T21:46:25.911Z,72.15
2022-10-21T21:48:56.024Z,72.30
2022-10-21T21:51:27.381Z,72.33
2022-10-21T21:53:55.399Z,72.51
2022-10-21T21:56:23.100Z,72.60
2022-10-21T21:58:51.636Z,72.56
2022-10-21T22:01:20.613Z,72.60
2022-10-21T22:03:49.235Z,72.62
2022-10-21T22:06:18.152Z,72.71
2022-10-21T22:08:45.578Z,72.80
2022-10-21T22:11:14.804Z,72.85
2022-10-21T22:13:41.721Z,72.85
2022-10-21T22:16:10.420Z,72.85
2022-10-21T22:18:37.454Z,72.81
2022-10-21T22:21:09.482Z,72.80
2022-10-21T22:23:37.235Z,73.05
2022-10-21T22:26:04.527Z,72.59
2022-10-21T22:28:31.376Z,72.93
2022-10-21T22:31:01.466Z,72.92
2022-10-21T22:33:29.287Z,72.84
2022-10-21T22:35:56.443Z,73.05
2022-10-21T22:38:23.209Z,72.93
2022-10-21T22:40:58.956Z,72.68
2022-10-21T22:43:26.960Z,72.92
2022-10-21T22:46:01.196Z,72.79
2022-10-21T22:48:40.759Z,72.83
2022-10-21T22:51:07.342Z,72.86
2022-10-21T22:53:35.327Z,72.80
2022-10-21T22:56:01.905Z,73.13
2022-10-21T22:58:28.612Z,72.88
2022-10-21T23:03:26.724Z,72.96
2022-10-21T23:05:53.152Z,72.84
2022-10-21T23:08:20.437Z,72.90
2022-10-21T23:10:48.875Z,72.56
2022-10-21T23:13:15.446Z,72.91
2022-10-21T23:15:42.006Z,72.86
2022-10-21T23:18:08.643Z,72.86
2022-10-21T23:20:35.260Z,72.82
2022-10-21T23:23:01.818Z,72.76
2022-10-21T23:25:28.521Z,72.83
2022-10-21T23:27:55.331Z,72.90
2022-10-21T23:30:23.758Z,72.77
2022-10-21T23:32:50.451Z,72.88
2022-10-21T23:35:17.718Z,72.82
2022-10-21T23:37:44.469Z,72.81
2022-10-21T23:40:12.269Z,72.79
2022-10-21T23:42:42.725Z,72.78
2022-10-21T23:45:11.086Z,72.87
2022-10-21T23:47:39.120Z,72.81
2022-10-21T23:50:07.267Z,72.76
2022-10-21T23:52:33.736Z,72.79
2022-10-21T23:55:00.231Z,72.71
2022-10-21T23:57:26.859Z,72.83
2022-10-21T23:59:53.422Z,72.74
